sensor_id;sensor_type;location;lat;lon;timestamp;pressure;altitude;pressure_sealevel;temperature;humidity
72959;BME280;60008;50.826;6.896;2023-04-01T00:00:18;98903.66;;;10.45;100.00
72959;BME280;60008;50.826;6.896;2023-04-01T00:03:03;98900.19;;;10.51;100.00
72959;BME280;60008;50.826;6.896;2023-04-01T00:05:48;98901.44;;;10.48;100.00
72959;BME280;60008;50.826;6.896;2023-04-01T00:08:33;98906.50;;;10.50;100.00
72959;BME280;60008;50.826;6.896;2023-04-01T00:11:19;98900.00;;;10.46;100.00
72959;BME280;60008;50.826;6.896;2023-04-01T00:14:05;98901.63;;;10.47;100.00
72959;BME280;60008;50.826;6.896;2023-04-01T00:16:50;98894.72;;;10.46;100.00
72959;BME280;60008;50.826;6.896;2023-04-01T00:19:35;98900.38;;;10.49;100.00
72959;BME280;60008;50.826;6.896;2023-04-01T00:22:20;98894.72;;;10.46;100.00
72959;BME280;60008;50.826;6.896;2023-04-01T00:25:07;98898.16;;;10.46;100.00
72959;BME280;60008;50.826;6.896;2023-04-01T00:27:52;98897.13;;;10.47;100.00
72959;BME280;60008;50.826;6.896;2023-04-01T00:30:37;98896.53;;;10.45;100.00
72959;BME280;60008;50.826;6.896;2023-04-01T00:33:22;98891.44;;;10.44;100.00
72959;BME280;60008;50.826;6.896;2023-04-01T00:36:13;98892.25;;;10.44;100.00
72959;BME280;60008;50.826;6.896;2023-04-01T00:38:58;98898.59;;;10.43;100.00
72959;BME280;60008;50.826;6.896;2023-04-01T00:41:44;98889.81;;;10.43;100.00
72959;BME280;60008;50.826;6.896;2023-04-01T00:44:32;98889.59;;;10.44;100.00
72959;BME280;60008;50.826;6.896;2023-04-01T00:47:17;98891.22;;;10.39;100.00
72959;BME280;60008;50.826;6.896;2023-04-01T00:50:03;98880.44;;;10.40;100.00
72959;BME280;60008;50.826;6.896;2023-04-01T00:52:48;98888.59;;;10.45;100.00
72959;BME280;60008;50.826;6.896;2023-04-01T00:55:35;98890.41;;;10.45;100.00
72959;BME280;60008;50.826;6.896;2023-04-01T00:58:24;98884.53;;;10.43;100.00
72959;BME280;60008;50.826;6.896;2023-04-01T01:01:09;98880.25;;;10.48;100.00
72959;BME280;60008;50.826;6.896;2023-04-01T01:03:54;98870.47;;;10.49;100.00
72959;BME280;60008;50.826;6.896;2023-04-01T01:10:20;98885.31;;;10.50;100.00
72959;BME280;60008;50.826;6.896;2023-04-01T01:13:16;98875.75;;;10.49;100.00
72959;BME280;60008;50.826;6.896;2023-04-01T01:16:10;98881.84;;;10.49;100.00
72959;BME280;60008;50.826;6.896;2023-04-01T01:25:25;98883.72;;;10.49;100.00
72959;BME280;60008;50.826;6.896;2023-04-01T01:31:33;98883.91;;;10.47;100.00
72959;BME280;60008;50.826;6.896;2023-04-01T01:37:15;98882.47;;;10.45;100.00
72959;BME280;60008;50.826;6.896;2023-04-01T01:40:06;98870.25;;;10.44;100.00
72959;BME280;60008;50.826;6.896;2023-04-01T01:42:54;98869.63;;;10.42;100.00
72959;BME280;60008;50.826;6.896;2023-04-01T01:45:48;98874.13;;;10.41;100.00
72959;BME280;60008;50.826;6.896;2023-04-01T01:48:35;98873.09;;;10.42;100.00
72959;BME280;60008;50.826;6.896;2023-04-01T01:51:22;98868.03;;;10.41;100.00
72959;BME280;60008;50.826;6.896;2023-04-01T01:54:12;98869.22;;;10.38;100.00
72959;BME280;60008;50.826;6.896;2023-04-01T01:57:05;98866.56;;;10.38;100.00
72959;BME280;60008;50.826;6.896;2023-04-01T01:59:54;98871.06;;;10.31;100.00
72959;BME280;60008;50.826;6.896;2023-04-01T02:02:43;98870.06;;;10.26;100.00
72959;BME280;60008;50.826;6.896;2023-04-01T02:05:29;98870.06;;;10.26;100.00
72959;BME280;60008;50.826;6.896;2023-04-01T02:08:23;98874.34;;;10.20;100.00
72959;BME280;60008;50.826;6.896;2023-04-01T02:11:17;98878.22;;;10.18;100.00
72959;BME280;60008;50.826;6.896;2023-04-01T02:14:11;98877.56;;;10.09;100.00
72959;BME280;60008;50.826;6.896;2023-04-01T02:17:04;98880.41;;;10.07;100.00
72959;BME280;60008;50.826;6.896;2023-04-01T02:19:53;98880.59;;;10.06;100.00
72959;BME280;60008;50.826;6.896;2023-04-01T02:22:48;98869.63;;;10.02;100.00
72959;BME280;60008;50.826;6.896;2023-04-01T02:25:35;98880.41;;;10.01;100.00
72959;BME280;60008;50.826;6.896;2023-04-01T02:28:22;98886.50;;;10.01;100.00
72959;BME280;60008;50.826;6.896;2023-04-01T02:31:12;98886.91;;;9.98;100.00
72959;BME280;60008;50.826;6.896;2023-04-01T02:33:58;98889.75;;;9.90;100.00
72959;BME280;60008;50.826;6.896;2023-04-01T02:36:43;98884.69;;;9.89;100.00
72959;BME280;60008;50.826;6.896;2023-04-01T02:39:29;98882.00;;;9.82;100.00
72959;BME280;60008;50.826;6.896;2023-04-01T02:42:14;98885.66;;;9.75;100.00
72959;BME280;60008;50.826;6.896;2023-04-01T02:44:59;98897.25;;;9.74;100.00
72959;BME280;60008;50.826;6.896;2023-04-01T02:47:44;98878.34;;;9.70;100.00
72959;BME280;60008;50.826;6.896;2023-04-01T02:50:30;98876.09;;;9.74;100.00
72959;BME280;60008;50.826;6.896;2023-04-01T02:53:15;98876.69;;;9.63;100.00
72959;BME280;60008;50.826;6.896;2023-04-01T02:56:00;98875.66;;;9.64;100.00
72959;BME280;60008;50.826;6.896;2023-04-01T02:58:46;98880.75;;;9.65;100.00
72959;BME280;60008;50.826;6.896;2023-04-01T03:01:30;98881.78;;;9.71;100.00
72959;BME280;60008;50.826;6.896;2023-04-01T03:04:16;98871.38;;;9.63;100.00
72959;BME280;60008;50.826;6.896;2023-04-01T03:07:01;98874.03;;;9.63;100.00
72959;BME280;60008;50.826;6.896;2023-04-01T03:09:46;98876.06;;;9.61;100.00
72959;BME280;60008;50.826;6.896;2023-04-01T03:12:30;98881.78;;;9.64;100.00
72959;BME280;60008;50.826;6.896;2023-04-01T03:15:16;98882.19;;;9.61;100.00
72959;BME280;60008;50.826;6.896;2023-04-01T03:18:01;98875.84;;;9.62;100.00
72959;BME280;60008;50.826;6.896;2023-04-01T03:20:46;98882.81;;;9.70;100.00
72959;BME280;60008;50.826;6.896;2023-04-01T03:23:31;98876.69;;;9.76;100.00
72959;BME280;60008;50.826;6.896;2023-04-01T03:26:16;98877.50;;;9.76;100.00
72959;BME280;60008;50.826;6.896;2023-04-01T03:29:02;98877.13;;;9.79;100.00
72959;BME280;60008;50.826;6.896;2023-04-01T03:31:47;98876.91;;;9.74;100.00
72959;BME280;60008;50.826;6.896;2023-04-01T03:34:31;98871.00;;;9.79;100.00
72959;BME280;60008;50.826;6.896;2023-04-01T03:37:16;98883.00;;;9.81;100.00
72959;BME280;60008;50.826;6.896;2023-04-01T03:40:01;98877.31;;;9.84;100.00
72959;BME280;60008;50.826;6.896;2023-04-01T03:42:47;98876.31;;;9.85;100.00
72959;BME280;60008;50.826;6.896;2023-04-01T03:45:31;98885.28;;;9.91;100.00
72959;BME280;60008;50.826;6.896;2023-04-01T03:48:18;98886.91;;;9.85;100.00
72959;BME280;60008;50.826;6.896;2023-04-01T03:51:06;98884.28;;;9.92;100.00
72959;BME280;60008;50.826;6.896;2023-04-01T03:53:52;98877.94;;;9.93;100.00
72959;BME280;60008;50.826;6.896;2023-04-01T03:56:37;98880.41;;;9.94;100.00
72959;BME280;60008;50.826;6.896;2023-04-01T03:59:22;98882.25;;;9.94;100.00
72959;BME280;60008;50.826;6.896;2023-04-01T04:02:07;98890.78;;;9.96;100.00
72959;BME280;60008;50.826;6.896;2023-04-01T04:04:52;98887.72;;;9.92;100.00
72959;BME280;60008;50.826;6.896;2023-04-01T04:07:37;98883.25;;;9.93;100.00
72959;BME280;60008;50.826;6.896;2023-04-01T04:10:22;98886.09;;;9.91;100.00
72959;BME280;60008;50.826;6.896;2023-04-01T04:13:07;98893.22;;;9.91;100.00
72959;BME280;60008;50.826;6.896;2023-04-01T04:15:53;98896.06;;;9.89;100.00
72959;BME280;60008;50.826;6.896;2023-04-01T04:18:39;98886.91;;;9.85;100.00
72959;BME280;60008;50.826;6.896;2023-04-01T04:21:23;98896.28;;;9.88;100.00
72959;BME280;60008;50.826;6.896;2023-04-01T04:24:08;98898.31;;;9.86;100.00
72959;BME280;60008;50.826;6.896;2023-04-01T04:26:54;98904.41;;;9.86;100.00
72959;BME280;60008;50.826;6.896;2023-04-01T04:29:39;98901.34;;;9.83;100.00
72959;BME280;60008;50.826;6.896;2023-04-01T04:32:24;98911.31;;;9.81;100.00
72959;BME280;60008;50.826;6.896;2023-04-01T04:35:09;98898.50;;;9.84;100.00
72959;BME280;60008;50.826;6.896;2023-04-01T04:37:54;98906.03;;;9.81;100.00
72959;BME280;60008;50.826;6.896;2023-04-01T04:40:41;98898.06;;;9.74;100.00
72959;BME280;60008;50.826;6.896;2023-04-01T04:43:26;98898.66;;;9.63;100.00
72959;BME280;60008;50.826;6.896;2023-04-01T04:46:11;98902.72;;;9.66;100.00
72959;BME280;60008;50.826;6.896;2023-04-01T04:48:56;98913.09;;;9.61;100.00
72959;BME280;60008;50.826;6.896;2023-04-01T04:51:41;98918.78;;;9.51;100.00
72959;BME280;60008;50.826;6.896;2023-04-01T04:54:26;98923.03;;;9.52;100.00
72959;BME280;60008;50.826;6.896;2023-04-01T04:57:11;98927.88;;;9.48;100.00
72959;BME280;60008;50.826;6.896;2023-04-01T04:59:56;98922.00;;;9.46;100.00
72959;BME280;60008;50.826;6.896;2023-04-01T05:02:41;98937.47;;;9.49;100.00
72959;BME280;60008;50.826;6.896;2023-04-01T05:05:26;98934.38;;;9.46;100.00
72959;BME280;60008;50.826;6.896;2023-04-01T05:08:11;98935.66;;;9.50;100.00
72959;BME280;60008;50.826;6.896;2023-04-01T05:10:56;98932.78;;;9.51;100.00
72959;BME280;60008;50.826;6.896;2023-04-01T05:13:42;98934.22;;;9.54;100.00
72959;BME280;60008;50.826;6.896;2023-04-01T05:16:27;98939.31;;;9.55;100.00
72959;BME280;60008;50.826;6.896;2023-04-01T05:19:12;98940.16;;;9.56;100.00
72959;BME280;60008;50.826;6.896;2023-04-01T05:21:57;98941.75;;;9.57;100.00
72959;BME280;60008;50.826;6.896;2023-04-01T05:24:42;98949.91;;;9.55;100.00
72959;BME280;60008;50.826;6.896;2023-04-01T05:27:27;98955.38;;;9.54;100.00
72959;BME280;60008;50.826;6.896;2023-04-01T05:30:12;98955.78;;;9.51;100.00
72959;BME280;60008;50.826;6.896;2023-04-01T05:32:57;98953.72;;;9.46;100.00
72959;BME280;60008;50.826;6.896;2023-04-01T05:35:42;98960.22;;;9.44;100.00
72959;BME280;60008;50.826;6.896;2023-04-01T05:38:27;98962.88;;;9.44;100.00
72959;BME280;60008;50.826;6.896;2023-04-01T05:41:12;98959.22;;;9.51;100.00
72959;BME280;60008;50.826;6.896;2023-04-01T05:43:57;98968.59;;;9.54;100.00
72959;BME280;60008;50.826;6.896;2023-04-01T05:46:42;98970.25;;;9.55;100.00
72959;BME280;60008;50.826;6.896;2023-04-01T05:49:27;98974.94;;;9.59;100.00
72959;BME280;60008;50.826;6.896;2023-04-01T05:52:13;98970.84;;;9.57;100.00
72959;BME280;60008;50.826;6.896;2023-04-01T05:54:58;98963.34;;;9.61;100.00
72959;BME280;60008;50.826;6.896;2023-04-01T05:57:46;98977.38;;;9.61;100.00
72959;BME280;60008;50.826;6.896;2023-04-01T06:00:31;98984.50;;;9.61;100.00
72959;BME280;60008;50.826;6.896;2023-04-01T06:03:16;98990.19;;;9.57;100.00
72959;BME280;60008;50.826;6.896;2023-04-01T06:06:01;98990.00;;;9.59;100.00
72959;BME280;60008;50.826;6.896;2023-04-01T06:08:46;98990.41;;;9.56;100.00
72959;BME280;60008;50.826;6.896;2023-04-01T06:11:46;98999.38;;;9.62;100.00
72959;BME280;60008;50.826;6.896;2023-04-01T06:14:52;98999.38;;;9.62;100.00
72959;BME280;60008;50.826;6.896;2023-04-01T06:18:02;99005.06;;;9.65;100.00
72959;BME280;60008;50.826;6.896;2023-04-01T06:21:03;99006.88;;;9.58;100.00
72959;BME280;60008;50.826;6.896;2023-04-01T06:27:14;99012.38;;;9.63;100.00
72959;BME280;60008;50.826;6.896;2023-04-01T06:30:31;99009.13;;;9.68;100.00
72959;BME280;60008;50.826;6.896;2023-04-01T06:33:39;99014.25;;;9.76;100.00
72959;BME280;60008;50.826;6.896;2023-04-01T06:36:56;99011.03;;;9.80;100.00
72959;BME280;60008;50.826;6.896;2023-04-01T06:43:37;99005.19;;;9.91;100.00
72959;BME280;60008;50.826;6.896;2023-04-01T06:46:45;99006.22;;;9.97;100.00
72959;BME280;60008;50.826;6.896;2023-04-01T06:55:36;99011.19;;;10.13;100.00
72959;BME280;60008;50.826;6.896;2023-04-01T06:58:30;99017.84;;;10.02;100.00
72959;BME280;60008;50.826;6.896;2023-04-01T07:01:22;99009.06;;;10.02;100.00
72959;BME280;60008;50.826;6.896;2023-04-01T07:04:34;99021.56;;;10.14;100.00
72959;BME280;60008;50.826;6.896;2023-04-01T07:07:29;99022.31;;;10.08;100.00
72959;BME280;60008;50.826;6.896;2023-04-01T07:10:31;99011.53;;;10.10;100.00
72959;BME280;60008;50.826;6.896;2023-04-01T07:13:25;99015.69;;;10.19;100.00
72959;BME280;60008;50.826;6.896;2023-04-01T07:16:16;99020.72;;;10.14;100.00
72959;BME280;60008;50.826;6.896;2023-04-01T07:19:06;99025.84;;;10.15;100.00
72959;BME280;60008;50.826;6.896;2023-04-01T07:21:56;99029.72;;;10.26;100.00
72959;BME280;60008;50.826;6.896;2023-04-01T07:24:44;99043.69;;;10.07;100.00
72959;BME280;60008;50.826;6.896;2023-04-01T07:27:30;99050.34;;;9.83;100.00
72959;BME280;60008;50.826;6.896;2023-04-01T07:30:17;99065.22;;;9.91;100.00
72959;BME280;60008;50.826;6.896;2023-04-01T07:33:14;99053.41;;;9.93;100.00
72959;BME280;60008;50.826;6.896;2023-04-01T07:36:20;99061.56;;;9.98;100.00
72959;BME280;60008;50.826;6.896;2023-04-01T07:50:56;99080.72;;;10.00;100.00
72959;BME280;60008;50.826;6.896;2023-04-01T07:57:27;99081.09;;;9.97;100.00
72959;BME280;60008;50.826;6.896;2023-04-01T08:00:22;99087.34;;;10.18;100.00
72959;BME280;60008;50.826;6.896;2023-04-01T08:03:21;99091.31;;;10.00;100.00
72959;BME280;60008;50.826;6.896;2023-04-01T08:06:20;99092.16;;;10.07;100.00
72959;BME280;60008;50.826;6.896;2023-04-01T08:09:49;99093.47;;;10.18;100.00
72959;BME280;60008;50.826;6.896;2023-04-01T08:12:51;99094.09;;;10.27;100.00
72959;BME280;60008;50.826;6.896;2023-04-01T08:15:59;99097.56;;;10.27;100.00
72959;BME280;60008;50.826;6.896;2023-04-01T08:19:02;99102.91;;;10.40;100.00
72959;BME280;60008;50.826;6.896;2023-04-01T08:21:52;99114.03;;;10.23;100.00
72959;BME280;60008;50.826;6.896;2023-04-01T08:24:44;99124.41;;;10.18;100.00
72959;BME280;60008;50.826;6.896;2023-04-01T08:27:37;99120.34;;;10.22;100.00
72959;BME280;60008;50.826;6.896;2023-04-01T08:30:26;99121.22;;;10.35;100.00
72959;BME280;60008;50.826;6.896;2023-04-01T08:33:21;99125.88;;;10.27;100.00
72959;BME280;60008;50.826;6.896;2023-04-01T08:36:14;99130.31;;;10.20;100.00
72959;BME280;60008;50.826;6.896;2023-04-01T08:39:13;99134.81;;;10.19;100.00
72959;BME280;60008;50.826;6.896;2023-04-01T08:45:44;99137.06;;;10.29;100.00
72959;BME280;60008;50.826;6.896;2023-04-01T08:48:27;99151.78;;;10.38;100.00
72959;BME280;60008;50.826;6.896;2023-04-01T08:54:53;99144.47;;;10.46;100.00
72959;BME280;60008;50.826;6.896;2023-04-01T09:03:40;99176.84;;;10.42;100.00
72959;BME280;60008;50.826;6.896;2023-04-01T09:06:34;99181.88;;;10.24;100.00
72959;BME280;60008;50.826;6.896;2023-04-01T09:09:48;99190.28;;;10.06;100.00
72959;BME280;60008;50.826;6.896;2023-04-01T09:19:47;99197.91;;;9.88;100.00
72959;BME280;60008;50.826;6.896;2023-04-01T09:22:47;99206.31;;;9.98;100.00
72959;BME280;60008;50.826;6.896;2023-04-01T09:25:46;99199.59;;;9.95;100.00
72959;BME280;60008;50.826;6.896;2023-04-01T09:28:50;99206.31;;;9.98;100.00
72959;BME280;60008;50.826;6.896;2023-04-01T09:38:39;99208.41;;;10.37;100.00
72959;BME280;60008;50.826;6.896;2023-04-01T09:41:31;99214.47;;;10.24;100.00
72959;BME280;60008;50.826;6.896;2023-04-01T09:50:56;99215.97;;;10.40;100.00
72959;BME280;60008;50.826;6.896;2023-04-01T10:03:08;99221.13;;;10.54;100.00
72959;BME280;60008;50.826;6.896;2023-04-01T10:12:45;99218.72;;;10.66;100.00
72959;BME280;60008;50.826;6.896;2023-04-01T10:19:14;99234.66;;;10.79;100.00
72959;BME280;60008;50.826;6.896;2023-04-01T10:22:23;99238.69;;;10.68;100.00
72959;BME280;60008;50.826;6.896;2023-04-01T10:41:20;99233.53;;;11.08;100.00
72959;BME280;60008;50.826;6.896;2023-04-01T11:03:44;99261.00;;;10.94;100.00
72959;BME280;60008;50.826;6.896;2023-04-01T11:10:25;99268.03;;;10.67;
72959;BME280;60008;50.826;6.896;2023-04-01T11:13:41;99277.25;;;10.77;100.00
72959;BME280;60008;50.826;6.896;2023-04-01T11:23:10;99278.19;;;11.17;100.00
72959;BME280;60008;50.826;6.896;2023-04-01T11:26:23;99279.00;;;11.05;100.00
72959;BME280;60008;50.826;6.896;2023-04-01T11:33:19;99278.06;;;11.39;100.00
72959;BME280;60008;50.826;6.896;2023-04-01T11:40:14;99281.97;;;11.69;100.00
72959;BME280;60008;50.826;6.896;2023-04-01T11:43:16;99283.84;;;11.75;100.00
72959;BME280;60008;50.826;6.896;2023-04-01T11:46:25;99281.38;;;12.00;100.00
72959;BME280;60008;50.826;6.896;2023-04-01T11:49:29;99281.97;;;11.62;100.00
72959;BME280;60008;50.826;6.896;2023-04-01T11:52:28;99301.31;;;11.50;100.00
72959;BME280;60008;50.826;6.896;2023-04-01T11:55:35;99301.84;;;11.12;100.00
72959;BME280;60008;50.826;6.896;2023-04-01T11:58:35;99309.00;;;11.18;100.00
72959;BME280;60008;50.826;6.896;2023-04-01T12:01:45;99314.72;;;11.15;100.00
72959;BME280;60008;50.826;6.896;2023-04-01T12:11:17;99316.19;;;11.24;100.00
72959;BME280;60008;50.826;6.896;2023-04-01T12:14:14;99312.13;;;11.35;100.00
72959;BME280;60008;50.826;6.896;2023-04-01T12:17:16;99313.59;;;11.64;100.00
72959;BME280;60008;50.826;6.896;2023-04-01T12:20:27;99306.50;;;11.71;100.00
72959;BME280;60008;50.826;6.896;2023-04-01T12:23:22;99319.38;;;11.87;100.00
72959;BME280;60008;50.826;6.896;2023-04-01T12:39:50;99343.16;;;11.48;100.00
72959;BME280;60008;50.826;6.896;2023-04-01T12:42:47;99340.94;;;11.51;100.00
72959;BME280;60008;50.826;6.896;2023-04-01T12:45:53;99341.34;;;11.55;100.00
72959;BME280;60008;50.826;6.896;2023-04-01T12:51:59;99341.66;;;11.25;100.00
72959;BME280;60008;50.826;6.896;2023-04-01T12:55:01;99351.84;;;11.15;100.00
72959;BME280;60008;50.826;6.896;2023-04-01T13:01:05;99354.03;;;11.66;100.00
72959;BME280;60008;50.826;6.896;2023-04-01T13:07:19;99350.41;;;11.80;100.00
72959;BME280;60008;50.826;6.896;2023-04-01T13:13:25;99356.94;;;12.23;100.00
72959;BME280;60008;50.826;6.896;2023-04-01T13:16:16;99356.78;;;12.12;100.00
72959;BME280;60008;50.826;6.896;2023-04-01T13:19:22;99352.03;;;11.81;100.00
72959;BME280;60008;50.826;6.896;2023-04-01T13:25:54;99372.66;;;11.85;100.00
72959;BME280;60008;50.826;6.896;2023-04-01T13:29:20;99373.72;;;11.98;100.00
72959;BME280;60008;50.826;6.896;2023-04-01T13:32:38;99377.53;;;11.69;100.00
72959;BME280;60008;50.826;6.896;2023-04-01T13:35:44;99381.56;;;11.52;100.00
72959;BME280;60008;50.826;6.896;2023-04-01T13:38:47;99390.44;;;11.24;100.00
72959;BME280;60008;50.826;6.896;2023-04-01T13:42:12;99405.56;;;11.30;100.00
72959;BME280;60008;50.826;6.896;2023-04-01T13:45:03;99395.97;;;11.29;100.00
72959;BME280;60008;50.826;6.896;2023-04-01T13:51:13;99393.91;;;11.79;100.00
72959;BME280;60008;50.826;6.896;2023-04-01T13:57:28;99399.28;;;11.45;100.00
72959;BME280;60008;50.826;6.896;2023-04-01T14:03:38;99413.53;;;11.37;100.00
72959;BME280;60008;50.826;6.896;2023-04-01T14:06:33;99415.69;;;11.68;100.00
72959;BME280;60008;50.826;6.896;2023-04-01T14:09:44;99408.38;;;11.70;100.00
72959;BME280;60008;50.826;6.896;2023-04-01T14:12:44;99412.19;;;11.61;100.00
72959;BME280;60008;50.826;6.896;2023-04-01T14:16:13;99422.09;;;11.39;100.00
72959;BME280;60008;50.826;6.896;2023-04-01T14:19:11;99431.94;;;11.39;100.00
72959;BME280;60008;50.826;6.896;2023-04-01T14:29:06;99446.97;;;11.25;100.00
72959;BME280;60008;50.826;6.896;2023-04-01T14:32:31;99455.88;;;11.17;100.00
72959;BME280;60008;50.826;6.896;2023-04-01T14:35:33;99452.00;;;11.20;100.00
72959;BME280;60008;50.826;6.896;2023-04-01T14:38:27;99458.19;;;11.33;100.00
72959;BME280;60008;50.826;6.896;2023-04-01T14:41:29;99450.06;;;11.35;100.00
72959;BME280;60008;50.826;6.896;2023-04-01T14:44:41;99458.34;;;11.25;100.00
72959;BME280;60008;50.826;6.896;2023-04-01T14:47:47;99458.56;;;11.24;100.00
72959;BME280;60008;50.826;6.896;2023-04-01T14:50:45;99449.22;;;11.34;100.00
72959;BME280;60008;50.826;6.896;2023-04-01T14:53:34;99439.44;;;11.35;100.00
72959;BME280;60008;50.826;6.896;2023-04-01T14:56:48;99445.16;;;11.32;100.00
72959;BME280;60008;50.826;6.896;2023-04-01T14:59:39;99444.53;;;11.36;100.00
72959;BME280;60008;50.826;6.896;2023-04-01T15:05:49;99461.28;;;11.37;100.00
72959;BME280;60008;50.826;6.896;2023-04-01T15:08:51;99464.16;;;11.35;100.00
72959;BME280;60008;50.826;6.896;2023-04-01T15:12:10;99466.38;;;11.32;100.00
72959;BME280;60008;50.826;6.896;2023-04-01T15:21:55;99480.28;;;11.41;100.00
72959;BME280;60008;50.826;6.896;2023-04-01T15:25:17;99480.72;;;11.51;100.00
72959;BME280;60008;50.826;6.896;2023-04-01T15:28:43;99481.50;;;11.45;100.00
72959;BME280;60008;50.826;6.896;2023-04-01T15:31:40;99502.56;;;11.53;100.00
72959;BME280;60008;50.826;6.896;2023-04-01T15:34:42;99502.13;;;11.43;100.00
72959;BME280;60008;50.826;6.896;2023-04-01T15:40:22;99497.81;;;11.42;100.00
72959;BME280;60008;50.826;6.896;2023-04-01T15:43:40;99512.56;;;11.51;100.00
72959;BME280;60008;50.826;6.896;2023-04-01T15:46:44;99514.28;;;11.65;100.00
72959;BME280;60008;50.826;6.896;2023-04-01T15:49:41;99511.28;;;11.40;100.00
72959;BME280;60008;50.826;6.896;2023-04-01T15:52:49;99517.00;;;11.37;100.00
72959;BME280;60008;50.826;6.896;2023-04-01T15:56:09;99522.06;;;11.32;100.00
72959;BME280;60008;50.826;6.896;2023-04-01T16:02:18;99533.97;;;11.15;100.00
72959;BME280;60008;50.826;6.896;2023-04-01T16:05:25;99543.75;;;11.14;100.00
72959;BME280;60008;50.826;6.896;2023-04-01T16:20:50;99557.50;;;10.97;100.00
72959;BME280;60008;50.826;6.896;2023-04-01T16:23:40;99563.13;;;10.87;100.00
72959;BME280;60008;50.826;6.896;2023-04-01T16:26:39;99570.59;;;10.77;100.00
72959;BME280;60008;50.826;6.896;2023-04-01T16:29:49;99574.31;;;10.83;100.00
72959;BME280;60008;50.826;6.896;2023-04-01T16:32:44;99580.56;;;10.96;100.00
72959;BME280;60008;50.826;6.896;2023-04-01T16:35:47;99577.88;;;10.90;100.00
72959;BME280;60008;50.826;6.896;2023-04-01T16:42:08;99584.06;;;10.75;100.00
72959;BME280;60008;50.826;6.896;2023-04-01T16:47:56;99600.38;;;10.58;100.00
72959;BME280;60008;50.826;6.896;2023-04-01T16:50:51;99597.97;;;10.63;100.00
72959;BME280;60008;50.826;6.896;2023-04-01T16:53:46;99607.94;;;10.61;100.00
72959;BME280;60008;50.826;6.896;2023-04-01T16:56:50;99610.91;;;10.51;100.00
72959;BME280;60008;50.826;6.896;2023-04-01T17:00:14;99626.81;;;10.51;100.00
72959;BME280;60008;50.826;6.896;2023-04-01T17:06:12;99632.75;;;10.39;100.00
72959;BME280;60008;50.826;6.896;2023-04-01T17:15:37;99639.97;;;10.45;100.00
72959;BME280;60008;50.826;6.896;2023-04-01T17:24:27;99648.34;;;10.27;100.00
72959;BME280;60008;50.826;6.896;2023-04-01T17:27:37;99671.34;;;10.27;100.00
72959;BME280;60008;50.826;6.896;2023-04-01T17:30:31;99680.28;;;10.26;100.00
72959;BME280;60008;50.826;6.896;2023-04-01T17:33:55;99682.56;;;10.14;100.00
72959;BME280;60008;50.826;6.896;2023-04-01T17:37:28;99693.59;;;10.03;100.00
72959;BME280;60008;50.826;6.896;2023-04-01T17:40:26;99701.44;;;9.96;100.00
72959;BME280;60008;50.826;6.896;2023-04-01T17:49:39;99713.94;;;9.88;100.00
72959;BME280;60008;50.826;6.896;2023-04-01T17:52:47;99715.59;;;9.89;100.00
72959;BME280;60008;50.826;6.896;2023-04-01T17:55:44;99729.72;;;9.96;100.00
72959;BME280;60008;50.826;6.896;2023-04-01T17:58:44;99736.94;;;9.87;100.00
72959;BME280;60008;50.826;6.896;2023-04-01T18:02:06;99740.28;;;9.81;100.00
72959;BME280;60008;50.826;6.896;2023-04-01T18:05:30;99749.97;;;9.74;100.00
72959;BME280;60008;50.826;6.896;2023-04-01T18:08:44;99756.97;;;9.67;100.00
72959;BME280;60008;50.826;6.896;2023-04-01T18:11:50;99759.63;;;9.67;100.00
72959;BME280;60008;50.826;6.896;2023-04-01T18:14:54;99764.09;;;9.67;100.00
72959;BME280;60008;50.826;6.896;2023-04-01T18:20:43;99777.03;;;9.62;100.00
72959;BME280;60008;50.826;6.896;2023-04-01T18:23:51;99777.19;;;9.60;100.00
72959;BME280;60008;50.826;6.896;2023-04-01T18:26:51;99778.56;;;9.56;100.00
72959;BME280;60008;50.826;6.896;2023-04-01T18:30:13;99781.22;;;9.56;100.00
72959;BME280;60008;50.826;6.896;2023-04-01T18:33:08;99787.69;;;9.53;100.00
72959;BME280;60008;50.826;6.896;2023-04-01T18:36:05;99781.91;;;9.50;100.00
72959;BME280;60008;50.826;6.896;2023-04-01T18:38:56;99795.13;;;9.50;100.00
72959;BME280;60008;50.826;6.896;2023-04-01T18:42:14;99797.50;;;9.45;100.00
72959;BME280;60008;50.826;6.896;2023-04-01T18:45:14;99796.88;;;9.35;100.00
72959;BME280;60008;50.826;6.896;2023-04-01T18:48:12;99808.28;;;9.35;100.00
72959;BME280;60008;50.826;6.896;2023-04-01T18:51:03;99817.03;;;9.36;100.00
72959;BME280;60008;50.826;6.896;2023-04-01T18:54:02;99820.34;;;9.38;100.00
72959;BME280;60008;50.826;6.896;2023-04-01T18:56:50;99816.22;;;9.35;100.00
72959;BME280;60008;50.826;6.896;2023-04-01T18:59:41;99819.06;;;9.34;100.00
72959;BME280;60008;50.826;6.896;2023-04-01T19:02:38;99833.78;;;9.28;100.00
72959;BME280;60008;50.826;6.896;2023-04-01T19:05:35;99841.25;;;9.25;100.00
72959;BME280;60008;50.826;6.896;2023-04-01T19:11:32;99846.38;;;9.26;100.00
72959;BME280;60008;50.826;6.896;2023-04-01T19:14:48;99847.50;;;9.32;100.00
72959;BME280;60008;50.826;6.896;2023-04-01T19:18:02;99844.53;;;9.27;100.00
72959;BME280;60008;50.826;6.896;2023-04-01T19:21:01;99843.72;;;9.26;100.00
72959;BME280;60008;50.826;6.896;2023-04-01T19:27:14;99857.78;;;9.19;100.00
72959;BME280;60008;50.826;6.896;2023-04-01T19:36:29;99864.25;;;9.16;100.00
72959;BME280;60008;50.826;6.896;2023-04-01T19:42:48;99867.91;;;9.15;100.00
72959;BME280;60008;50.826;6.896;2023-04-01T19:48:37;99876.81;;;9.14;100.00
72959;BME280;60008;50.826;6.896;2023-04-01T19:54:54;99882.75;;;9.16;100.00
72959;BME280;60008;50.826;6.896;2023-04-01T19:58:06;99883.63;;;9.09;100.00
72959;BME280;60008;50.826;6.896;2023-04-01T20:00:58;99899.78;;;9.14;100.00
72959;BME280;60008;50.826;6.896;2023-04-01T20:03:49;99890.22;;;9.13;100.00
72959;BME280;60008;50.826;6.896;2023-04-01T20:06:57;99903.25;;;9.14;100.00